Time;durP1;ratioP1;P1;durP2;ratioP2;P2;SDS_P1;SDS_P2;PMS_P1;PMS_P2;Temp;Humidity;BMP_temperature;BMP_pressure;BME280_temperature;BME280_humidity;BME280_pressure;Samples;Min_cycle;Max_cycle;Signal;HPM_P1;HPM_P2
2023/05/16 00:01:15;;;;;;;24.67;15.80;;;11.90;99.90;;;;;;6124079;23;20134;-82
2023/05/16 00:03:41;;;;;;;25.80;17.05;;;11.80;99.90;;;;;;6123209;23;20196;-82
2023/05/16 00:06:08;;;;;;;27.63;19.20;;;11.80;99.90;;;;;;6096884;23;20432;-82
2023/05/16 00:08:33;;;;;;;35.90;18.13;;;11.70;99.90;;;;;;6121484;23;20009;-82
2023/05/16 00:10:59;;;;;;;25.45;18.15;;;11.60;99.90;;;;;;6125894;23;20043;-82
2023/05/16 00:13:25;;;;;;;27.60;18.80;;;11.60;99.90;;;;;;6147500;23;20010;-86
2023/05/16 00:15:55;;;;;;;30.50;19.98;;;11.50;99.90;;;;;;6146964;23;20006;-82
2023/05/16 00:18:22;;;;;;;27.45;20.08;;;11.40;99.90;;;;;;6144793;23;20024;-83
2023/05/16 00:20:51;;;;;;;26.45;20.55;;;11.40;99.90;;;;;;6143637;23;20309;-83
2023/05/16 00:23:17;;;;;;;27.55;21.30;;;11.30;99.90;;;;;;6145411;23;20001;-90
2023/05/16 00:25:43;;;;;;;34.83;22.98;;;11.20;99.90;;;;;;6145729;23;20056;-83
2023/05/16 00:28:09;;;;;;;35.65;24.10;;;11.10;99.90;;;;;;6147848;23;20005;-83
2023/05/16 00:30:35;;;;;;;40.28;23.60;;;11.10;99.90;;;;;;6146967;23;20005;-83
2023/05/16 00:33:01;;;;;;;37.40;23.75;;;10.90;99.90;;;;;;6144002;23;20025;-82
2023/05/16 00:35:27;;;;;;;34.70;23.80;;;10.90;99.90;;;;;;6144459;23;20001;-82
2023/05/16 00:37:52;;;;;;;36.40;23.95;;;10.90;99.90;;;;;;6144324;23;20094;-83
2023/05/16 00:40:19;;;;;;;39.83;24.13;;;10.90;99.90;;;;;;6146798;23;20005;-84
2023/05/16 00:42:44;;;;;;;33.47;24.15;;;11.00;99.90;;;;;;6146227;23;20685;-81
2023/05/16 00:45:10;;;;;;;37.63;26.35;;;10.80;99.90;;;;;;6146396;23;20029;-84
2023/05/16 00:47:36;;;;;;;33.05;25.23;;;10.80;99.90;;;;;;6145318;23;20037;-85
2023/05/16 00:50:03;;;;;;;34.75;25.55;;;10.80;99.90;;;;;;6145671;23;20025;-82
2023/05/16 00:52:32;;;;;;;35.47;25.77;;;10.70;99.90;;;;;;6146029;23;20375;-88
2023/05/16 00:54:58;;;;;;;39.47;27.70;;;10.70;99.90;;;;;;6142668;23;20048;-82
2023/05/16 00:57:24;;;;;;;41.95;28.02;;;10.70;99.90;;;;;;6144182;23;20002;-87
2023/05/16 00:59:50;;;;;;;41.80;27.42;;;10.60;99.90;;;;;;6143335;23;20001;-83
2023/05/16 01:02:16;;;;;;;42.45;29.00;;;10.50;99.90;;;;;;6144230;23;20004;-82
2023/05/16 01:04:47;;;;;;;42.03;27.88;;;10.40;99.90;;;;;;6146716;23;20044;-84
2023/05/16 01:07:13;;;;;;;43.20;29.45;;;10.40;99.90;;;;;;6146438;23;20301;-84
2023/05/16 01:09:39;;;;;;;43.47;29.20;;;10.40;99.90;;;;;;6144721;23;20006;-82
2023/05/16 01:12:37;;;;;;;43.72;28.70;;;10.30;99.90;;;;;;6142945;23;20482;-82
2023/05/16 01:15:13;;;;;;;37.47;27.45;;;10.20;99.90;;;;;;6146105;23;20002;-82
2023/05/16 01:17:59;;;;;;;43.38;26.85;;;10.20;99.90;;;;;;6145550;23;20089;-82
2023/05/16 01:20:28;;;;;;;38.15;27.10;;;10.10;99.90;;;;;;6145822;23;20535;-89
2023/05/16 01:23:15;;;;;;;35.50;24.50;;;10.10;99.90;;;;;;6144867;23;20436;-83
2023/05/16 01:25:47;;;;;;;34.28;24.35;;;10.00;99.90;;;;;;6143938;23;20056;-83
2023/05/16 01:28:16;;;;;;;31.10;23.58;;;10.00;99.90;;;;;;6144854;23;20013;-83
2023/05/16 01:30:43;;;;;;;36.63;24.52;;;10.00;99.90;;;;;;6145206;23;20037;-83
2023/05/16 01:33:09;;;;;;;31.42;24.25;;;10.00;99.90;;;;;;6146248;23;20057;-85
2023/05/16 01:35:46;;;;;;;31.90;22.40;;;9.90;99.90;;;;;;6144565;23;20020;-81
2023/05/16 01:38:29;;;;;;;31.23;21.05;;;9.90;99.90;;;;;;6142702;23;20820;-84
2023/05/16 01:41:02;;;;;;;29.75;21.40;;;9.90;99.90;;;;;;6145098;23;20053;-84
2023/05/16 01:43:41;;;;;;;26.05;20.33;;;9.80;99.90;;;;;;6144652;23;20011;-83
2023/05/16 01:46:29;;;;;;;29.73;21.02;;;9.80;99.90;;;;;;6144474;23;20008;-83
2023/05/16 01:49:24;;;;;;;27.80;20.20;;;9.80;99.90;;;;;;6142234;23;20462;-84
2023/05/16 01:51:59;;;;;;;31.35;19.45;;;9.80;99.90;;;;;;6143451;23;20040;-82
2023/05/16 01:54:29;;;;;;;26.33;18.17;;;9.80;99.90;;;;;;6147645;23;20001;-81
2023/05/16 01:56:55;;;;;;;26.67;16.85;;;9.70;99.90;;;;;;6146345;23;20028;-83
2023/05/16 01:59:23;;;;;;;27.33;17.67;;;9.60;99.90;;;;;;6142811;23;20100;-83
2023/05/16 02:01:52;;;;;;;26.77;17.75;;;9.60;99.90;;;;;;6142499;23;20005;-81
2023/05/16 02:04:17;;;;;;;25.33;17.27;;;9.60;99.90;;;;;;6141571;23;20013;-82
2023/05/16 02:06:43;;;;;;;22.52;16.67;;;9.60;99.90;;;;;;6144457;23;20428;-83
2023/05/16 02:09:09;;;;;;;26.88;16.85;;;9.60;99.90;;;;;;6144786;23;20226;-83
2023/05/16 02:11:35;;;;;;;22.13;16.85;;;9.60;99.90;;;;;;6144283;23;20014;-85
2023/05/16 02:14:02;;;;;;;24.05;16.60;;;9.60;99.90;;;;;;6144519;23;20092;-85
2023/05/16 02:16:30;;;;;;;27.15;16.05;;;9.60;99.90;;;;;;6143378;23;20001;-84
2023/05/16 02:18:55;;;;;;;20.92;15.77;;;9.60;99.90;;;;;;6144828;23;20100;-80
2023/05/16 02:21:21;;;;;;;21.33;15.82;;;9.60;99.90;;;;;;6143347;23;20365;-82
2023/05/16 02:23:47;;;;;;;21.13;15.10;;;9.70;99.90;;;;;;6144718;23;20009;-82
2023/05/16 02:26:12;;;;;;;22.92;15.00;;;9.70;99.90;;;;;;6145508;23;20417;-85
2023/05/16 02:28:38;;;;;;;21.73;14.93;;;9.70;99.90;;;;;;6144936;23;20305;-85
2023/05/16 02:31:03;;;;;;;27.00;15.43;;;9.80;99.90;;;;;;6118079;23;20005;-83
2023/05/16 02:33:29;;;;;;;24.40;14.75;;;9.80;99.90;;;;;;6144274;23;20037;-84
2023/05/16 02:35:55;;;;;;;25.08;15.27;;;9.80;99.90;;;;;;6145971;23;20008;-84
2023/05/16 02:38:21;;;;;;;22.38;14.57;;;9.90;99.90;;;;;;6144714;23;20428;-85
2023/05/16 02:40:47;;;;;;;23.60;14.38;;;9.90;99.90;;;;;;6145120;23;20036;-83
2023/05/16 02:43:13;;;;;;;25.83;15.88;;;9.90;99.90;;;;;;6143590;23;20053;-85
2023/05/16 02:45:38;;;;;;;28.05;15.75;;;10.00;99.90;;;;;;6143407;23;20005;-83
2023/05/16 02:48:04;;;;;;;25.40;15.93;;;10.00;99.90;;;;;;6143523;23;20424;-85
2023/05/16 02:50:30;;;;;;;25.75;14.77;;;10.00;99.90;;;;;;6145662;23;20092;-86
2023/05/16 02:52:58;;;;;;;22.25;14.82;;;10.00;99.90;;;;;;6145759;23;20379;-81
2023/05/16 02:55:24;;;;;;;25.13;16.30;;;10.00;99.90;;;;;;6144764;23;20033;-83
2023/05/16 02:57:50;;;;;;;26.63;16.40;;;10.00;99.90;;;;;;6143610;23;20021;-86
2023/05/16 03:00:16;;;;;;;45.72;17.30;;;10.10;99.90;;;;;;6142026;23;20002;-89
2023/05/16 03:02:42;;;;;;;29.15;16.77;;;10.10;99.90;;;;;;6145431;23;20438;-83
2023/05/16 03:05:08;;;;;;;23.90;14.50;;;10.10;99.90;;;;;;6144715;23;20076;-82
2023/05/16 03:07:34;;;;;;;29.63;16.77;;;10.10;99.90;;;;;;6145592;23;20006;-83
2023/05/16 03:10:00;;;;;;;25.77;16.92;;;10.10;99.90;;;;;;6119974;23;20001;-82
2023/05/16 03:12:27;;;;;;;30.02;17.23;;;10.10;99.90;;;;;;6144435;23;20022;-84
2023/05/16 03:14:53;;;;;;;26.40;17.70;;;10.10;99.90;;;;;;6144104;23;20005;-83
2023/05/16 03:17:20;;;;;;;37.70;19.75;;;10.10;99.90;;;;;;6142868;23;20001;-84
2023/05/16 03:19:45;;;;;;;25.73;17.88;;;10.10;99.90;;;;;;6120790;23;20013;-81
2023/05/16 03:22:11;;;;;;;24.63;18.38;;;10.00;99.90;;;;;;6145625;23;20002;-83
2023/05/16 03:24:37;;;;;;;29.00;19.95;;;10.10;99.90;;;;;;6145747;23;20001;-89
2023/05/16 03:27:03;;;;;;;31.25;20.80;;;10.10;99.90;;;;;;6143256;23;20503;-84
2023/05/16 03:29:30;;;;;;;33.08;20.05;;;10.00;99.90;;;;;;6144172;23;20089;-82
2023/05/16 03:31:56;;;;;;;33.05;20.80;;;9.90;99.90;;;;;;6145095;23;20466;-85
2023/05/16 03:34:21;;;;;;;34.40;21.15;;;9.90;99.90;;;;;;6145713;23;20029;-84
2023/05/16 03:36:48;;;;;;;33.95;19.77;;;9.90;99.90;;;;;;6145570;23;20017;-85
2023/05/16 03:39:15;;;;;;;30.05;19.55;;;9.90;99.90;;;;;;6146671;23;20024;-82
2023/05/16 03:41:43;;;;;;;31.13;19.13;;;9.90;99.90;;;;;;6145470;23;20002;-87
2023/05/16 03:44:09;;;;;;;35.55;18.38;;;9.90;99.90;;;;;;6142879;23;20009;-87
2023/05/16 03:46:35;;;;;;;29.80;18.05;;;9.90;99.90;;;;;;6145496;23;20012;-87
2023/05/16 03:49:01;;;;;;;36.83;18.67;;;9.90;99.90;;;;;;6148214;23;20108;-83
2023/05/16 03:51:27;;;;;;;24.73;16.95;;;9.90;99.90;;;;;;6147269;23;20044;-81
2023/05/16 03:53:53;;;;;;;29.92;17.55;;;9.90;99.90;;;;;;6146511;23;19997;-86
2023/05/16 03:56:18;;;;;;;29.70;16.65;;;10.00;99.90;;;;;;6144690;23;20001;-83
2023/05/16 03:58:44;;;;;;;23.20;15.45;;;10.00;99.90;;;;;;6145734;23;20013;-83
2023/05/16 04:01:10;;;;;;;28.33;16.98;;;10.00;99.90;;;;;;6144931;23;20005;-87
2023/05/16 04:03:37;;;;;;;25.30;15.73;;;10.00;99.90;;;;;;6147686;23;20009;-83
2023/05/16 04:06:03;;;;;;;25.67;17.02;;;10.00;99.90;;;;;;6146593;23;19998;-84
2023/05/16 04:08:28;;;;;;;26.27;17.50;;;10.00;99.90;;;;;;6146836;23;20444;-86
2023/05/16 04:10:55;;;;;;;23.73;15.70;;;10.00;99.90;;;;;;6145639;23;20009;-86
2023/05/16 04:13:21;;;;;;;28.05;17.38;;;10.00;99.90;;;;;;6147040;23;20005;-83
2023/05/16 04:15:46;;;;;;;28.88;15.60;;;10.00;99.90;;;;;;6145213;23;20002;-82
2023/05/16 04:18:12;;;;;;;28.23;16.33;;;10.00;99.90;;;;;;6149098;23;20076;-81
2023/05/16 04:20:38;;;;;;;23.77;15.85;;;10.00;99.90;;;;;;6146742;23;20028;-85
2023/05/16 04:23:03;;;;;;;23.63;15.45;;;10.00;99.90;;;;;;6147165;23;20360;-82
2023/05/16 04:25:30;;;;;;;25.33;16.65;;;10.00;99.90;;;;;;6146536;23;20002;-83
2023/05/16 04:27:56;;;;;;;26.38;16.35;;;10.00;99.90;;;;;;6143172;23;20002;-82
2023/05/16 04:30:21;;;;;;;28.45;16.17;;;10.10;99.90;;;;;;6142602;23;20002;-83
2023/05/16 04:32:47;;;;;;;22.50;15.25;;;10.00;99.90;;;;;;6144806;23;20002;-82
2023/05/16 04:35:13;;;;;;;26.05;14.13;;;10.00;99.90;;;;;;6146933;23;20112;-80
2023/05/16 04:37:38;;;;;;;27.95;14.73;;;10.00;99.90;;;;;;6145797;23;20004;-84
2023/05/16 04:40:06;;;;;;;25.40;15.30;;;10.00;99.90;;;;;;6145714;23;20009;-82
2023/05/16 04:42:33;;;;;;;27.33;14.30;;;10.00;99.90;;;;;;6143650;23;20002;-85
2023/05/16 04:44:59;;;;;;;19.58;14.02;;;10.10;99.90;;;;;;6143898;23;20048;-84
2023/05/16 04:47:25;;;;;;;18.05;12.38;;;10.10;99.90;;;;;;6143849;23;20325;-81
2023/05/16 04:49:53;;;;;;;18.98;11.95;;;10.10;99.90;;;;;;6118763;23;20005;-86
2023/05/16 04:52:19;;;;;;;17.13;12.85;;;10.10;99.90;;;;;;6147061;23;20152;-81
2023/05/16 04:54:45;;;;;;;24.25;13.52;;;10.10;99.90;;;;;;6143876;23;20428;-83
2023/05/16 04:57:10;;;;;;;26.02;14.40;;;10.00;99.90;;;;;;6140225;23;20005;-81
2023/05/16 04:59:37;;;;;;;20.65;14.15;;;10.00;99.90;;;;;;6144127;23;20101;-83
2023/05/16 05:02:03;;;;;;;33.45;14.73;;;10.00;99.90;;;;;;6143799;23;20435;-83
2023/05/16 05:04:28;;;;;;;29.27;13.68;;;10.00;99.90;;;;;;6145726;23;20036;-87
2023/05/16 05:06:54;;;;;;;22.83;13.35;;;10.00;99.90;;;;;;6145785;23;20009;-85
2023/05/16 05:09:20;;;;;;;18.83;12.73;;;10.00;99.90;;;;;;6146903;23;20084;-81
2023/05/16 05:11:45;;;;;;;20.08;12.48;;;10.00;99.90;;;;;;6143229;23;20022;-83
2023/05/16 05:14:11;;;;;;;21.77;11.70;;;10.00;99.90;;;;;;6145275;23;20005;-84
2023/05/16 05:16:37;;;;;;;19.50;11.25;;;10.10;99.90;;;;;;6146311;23;20444;-84
2023/05/16 05:19:02;;;;;;;17.38;11.77;;;10.00;99.90;;;;;;6146779;23;20567;-83
2023/05/16 05:21:29;;;;;;;17.30;10.52;;;10.00;99.90;;;;;;6147114;23;20037;-83
2023/05/16 05:23:56;;;;;;;23.85;9.65;;;10.00;99.90;;;;;;6143847;23;20053;-84
2023/05/16 05:26:22;;;;;;;14.93;9.55;;;10.00;99.90;;;;;;6144053;23;20428;-83
2023/05/16 05:28:48;;;;;;;16.13;8.93;;;10.10;99.90;;;;;;6143809;23;20053;-81
2023/05/16 05:31:14;;;;;;;15.70;9.35;;;10.10;99.90;;;;;;6146031;23;20005;-86
2023/05/16 05:33:41;;;;;;;9.75;8.00;;;10.20;99.90;;;;;;6146647;23;20401;-84
2023/05/16 05:36:07;;;;;;;16.42;8.23;;;10.20;99.90;;;;;;6147342;23;20001;-83
2023/05/16 05:38:34;;;;;;;16.45;8.90;;;10.20;99.90;;;;;;6145948;23;20041;-83
2023/05/16 05:40:59;;;;;;;14.35;8.48;;;10.20;99.90;;;;;;6144643;23;20359;-83
2023/05/16 05:43:27;;;;;;;15.27;8.15;;;10.20;99.90;;;;;;6146310;23;20084;-89
2023/05/16 05:45:52;;;;;;;20.33;8.73;;;10.20;99.90;;;;;;6147555;23;20005;-84
2023/05/16 05:48:18;;;;;;;12.20;8.50;;;10.30;99.90;;;;;;6145865;23;20342;-83
2023/05/16 05:50:44;;;;;;;16.38;8.77;;;10.30;99.90;;;;;;6142639;23;20292;-84
2023/05/16 05:53:09;;;;;;;15.55;8.30;;;10.30;99.90;;;;;;6143796;23;20015;-82
2023/05/16 05:55:36;;;;;;;20.05;10.45;;;10.20;99.90;;;;;;6143550;23;20420;-87
2023/05/16 05:58:01;;;;;;;21.42;10.65;;;10.20;99.90;;;;;;6146847;23;20009;-83
2023/05/16 06:00:28;;;;;;;17.00;11.40;;;10.20;99.90;;;;;;6145661;23;20553;-83
2023/05/16 06:02:54;;;;;;;13.93;11.65;;;10.20;99.90;;;;;;6146277;23;19998;-82
2023/05/16 06:05:20;;;;;;;17.65;11.80;;;10.30;99.90;;;;;;6147351;23;20005;-82
2023/05/16 06:07:45;;;;;;;18.48;11.73;;;10.30;99.90;;;;;;6142976;23;20059;-83
2023/05/16 06:10:11;;;;;;;16.20;11.23;;;10.30;99.90;;;;;;6143434;23;20033;-86
2023/05/16 06:12:36;;;;;;;14.85;9.80;;;10.40;99.90;;;;;;6144461;23;20005;-82
2023/05/16 06:15:05;;;;;;;10.57;6.90;;;10.40;99.90;;;;;;6144042;23;20361;-90
2023/05/16 06:17:31;;;;;;;8.43;5.75;;;10.30;99.90;;;;;;6145931;23;20009;-83
2023/05/16 06:19:57;;;;;;;9.90;4.75;;;10.30;99.90;;;;;;6146978;23;20450;-84
2023/05/16 06:22:23;;;;;;;14.95;5.25;;;10.20;99.90;;;;;;6146783;23;20013;-82
2023/05/16 06:24:48;;;;;;;5.80;4.55;;;10.20;99.90;;;;;;6144142;23;20012;-84
2023/05/16 06:27:14;;;;;;;7.95;4.07;;;10.20;99.90;;;;;;6140218;23;20009;-90
2023/05/16 06:29:39;;;;;;;5.53;3.95;;;10.30;99.90;;;;;;6143480;23;19998;-82
2023/05/16 06:32:05;;;;;;;11.43;4.60;;;10.30;99.90;;;;;;6143995;23;20475;-82
2023/05/16 06:34:31;;;;;;;8.13;4.43;;;10.30;99.90;;;;;;6143292;23;20486;-83
2023/05/16 06:36:56;;;;;;;8.82;5.10;;;10.30;99.90;;;;;;6145301;23;20005;-82
2023/05/16 06:39:22;;;;;;;9.70;4.85;;;10.30;99.90;;;;;;6146289;23;20340;-83
2023/05/16 06:41:48;;;;;;;8.57;5.35;;;10.30;99.90;;;;;;6145267;23;20341;-80
2023/05/16 06:44:13;;;;;;;16.58;5.90;;;10.20;99.90;;;;;;6146591;23;20754;-83
2023/05/16 06:46:42;;;;;;;10.93;5.95;;;10.30;99.90;;;;;;6145341;23;20006;-84
2023/05/16 06:49:07;;;;;;;15.82;6.63;;;10.30;99.90;;;;;;6144117;23;20009;-79
2023/05/16 06:51:33;;;;;;;13.15;5.10;;;10.40;99.90;;;;;;6143414;23;20032;-82
2023/05/16 06:53:58;;;;;;;11.23;6.20;;;10.40;99.90;;;;;;6144227;23;20005;-81
2023/05/16 06:56:24;;;;;;;13.82;5.88;;;10.40;99.90;;;;;;6145155;23;20006;-83
2023/05/16 06:58:50;;;;;;;16.67;5.75;;;10.40;99.90;;;;;;6146646;23;20017;-83
2023/05/16 07:01:16;;;;;;;12.43;5.50;;;10.50;99.90;;;;;;6146698;23;20436;-88
2023/05/16 07:03:42;;;;;;;16.13;5.07;;;10.60;99.90;;;;;;6145068;23;20009;-84
2023/05/16 07:06:08;;;;;;;19.60;6.78;;;10.60;99.90;;;;;;6146175;23;20344;-83
2023/05/16 07:08:34;;;;;;;17.60;5.72;;;10.50;99.90;;;;;;6144329;23;19997;-80
2023/05/16 07:11:01;;;;;;;13.13;5.65;;;10.50;99.90;;;;;;6145770;23;20056;-84
2023/05/16 07:13:27;;;;;;;17.70;5.43;;;10.50;99.90;;;;;;6146082;23;20039;-84
2023/05/16 07:15:53;;;;;;;16.10;6.13;;;10.60;99.90;;;;;;6146556;23;20439;-82
2023/05/16 07:18:18;;;;;;;15.98;6.28;;;10.60;99.90;;;;;;6146106;23;20009;-81
2023/05/16 07:20:44;;;;;;;18.63;6.90;;;10.60;99.90;;;;;;6146744;23;20001;-82
2023/05/16 07:23:13;;;;;;;15.50;7.30;;;10.60;99.90;;;;;;6118338;23;20002;-85
2023/05/16 07:25:39;;;;;;;18.55;6.50;;;10.60;99.90;;;;;;6145183;23;20499;-84
2023/05/16 07:28:04;;;;;;;24.75;7.63;;;10.60;99.90;;;;;;6148618;23;20212;-81
2023/05/16 07:30:30;;;;;;;15.43;6.97;;;10.60;99.90;;;;;;6146443;23;20439;-81
2023/05/16 07:32:55;;;;;;;16.45;6.93;;;10.60;99.90;;;;;;6146885;23;20447;-84
2023/05/16 07:35:21;;;;;;;18.08;7.90;;;10.60;99.90;;;;;;6148316;23;20336;-81
2023/05/16 07:37:47;;;;;;;13.20;5.72;;;10.50;99.90;;;;;;6116742;23;20421;-81
2023/05/16 07:40:13;;;;;;;15.73;5.15;;;10.50;99.90;;;;;;6144202;23;20009;-80
2023/05/16 07:42:39;;;;;;;18.70;5.25;;;10.40;99.90;;;;;;6147215;23;20301;-83
2023/05/16 07:45:06;;;;;;;15.65;3.95;;;10.40;99.90;;;;;;6122140;23;20013;-81
2023/05/16 07:47:31;;;;;;;14.70;4.20;;;10.20;99.90;;;;;;6145576;23;20324;-82
2023/05/16 07:49:57;;;;;;;15.52;4.65;;;10.10;99.90;;;;;;6143376;23;20002;-87
2023/05/16 07:52:23;;;;;;;15.43;4.55;;;10.00;99.90;;;;;;6145228;23;20029;-82
2023/05/16 07:54:48;;;;;;;15.38;5.68;;;9.90;99.90;;;;;;6122030;23;20332;-82
2023/05/16 07:57:14;;;;;;;22.15;4.60;;;9.70;99.90;;;;;;6147943;23;20049;-82
2023/05/16 07:59:41;;;;;;;17.70;5.57;;;9.60;99.90;;;;;;6146598;23;20024;-85
2023/05/16 08:02:06;;;;;;;22.58;5.40;;;9.50;99.90;;;;;;6148830;23;20487;-81
2023/05/16 08:04:32;;;;;;;20.58;5.68;;;9.50;99.90;;;;;;6145877;23;20002;-82
2023/05/16 08:06:58;;;;;;;25.67;6.07;;;9.50;99.90;;;;;;6144493;23;20001;-81
2023/05/16 08:09:23;;;;;;;24.27;5.65;;;9.40;99.90;;;;;;6145830;23;20005;-83
2023/05/16 08:11:49;;;;;;;23.05;5.05;;;9.40;99.90;;;;;;6145774;23;20447;-83
2023/05/16 08:14:14;;;;;;;39.10;5.35;;;9.30;99.90;;;;;;6146719;23;20002;-83
2023/05/16 08:16:40;;;;;;;25.85;4.60;;;9.30;99.90;;;;;;6147212;23;20002;-82
2023/05/16 08:19:06;;;;;;;26.23;4.60;;;9.40;99.90;;;;;;6147173;23;20010;-83
2023/05/16 08:21:32;;;;;;;39.72;6.63;;;9.40;99.90;;;;;;6147394;23;20336;-82
2023/05/16 08:23:57;;;;;;;37.25;5.43;;;9.50;99.90;;;;;;6144881;23;20009;-84
2023/05/16 08:26:23;;;;;;;28.20;5.00;;;9.50;99.90;;;;;;6145580;23;20509;-81
2023/05/16 08:28:50;;;;;;;22.42;4.90;;;9.60;99.90;;;;;;6146945;23;20008;-79
2023/05/16 08:31:16;;;;;;;32.90;5.63;;;9.60;99.90;;;;;;6147096;23;20100;-82
2023/05/16 08:33:42;;;;;;;32.42;4.82;;;9.70;99.90;;;;;;6120577;23;20092;-81
2023/05/16 08:36:09;;;;;;;21.80;4.53;;;9.70;99.90;;;;;;6146212;23;20006;-83
2023/05/16 08:38:37;;;;;;;24.73;5.18;;;9.80;99.90;;;;;;6145556;23;20021;-82
2023/05/16 08:41:03;;;;;;;35.67;5.57;;;9.80;99.90;;;;;;6144474;23;20374;-84
2023/05/16 08:43:29;;;;;;;24.05;4.90;;;9.90;99.90;;;;;;6145173;23;20036;-82
2023/05/16 08:45:55;;;;;;;36.38;5.97;;;10.00;99.90;;;;;;6118357;23;20013;-82
2023/05/16 08:48:22;;;;;;;28.55;4.60;;;10.00;99.90;;;;;;6146939;23;20053;-83
2023/05/16 08:50:53;;;;;;;28.95;4.30;;;10.10;99.90;;;;;;6146368;23;20128;-83
2023/05/16 08:53:24;;;;;;;32.58;5.50;;;10.10;99.90;;;;;;6146825;23;19998;-82
2023/05/16 08:55:51;;;;;;;28.67;5.10;;;10.10;99.90;;;;;;6143602;23;20129;-82
2023/05/16 08:58:17;;;;;;;19.50;4.45;;;10.20;99.90;;;;;;6143898;23;20017;-82
2023/05/16 09:00:43;;;;;;;30.73;4.78;;;10.30;99.90;;;;;;6144290;23;20003;-82
2023/05/16 09:03:08;;;;;;;18.80;3.90;;;10.40;99.90;;;;;;6143832;23;20084;-83
2023/05/16 09:05:34;;;;;;;20.52;3.97;;;10.50;99.90;;;;;;6146920;23;20005;-80
2023/05/16 09:08:00;;;;;;;22.83;5.03;;;10.50;99.90;;;;;;6146568;23;20092;-82
2023/05/16 09:10:26;;;;;;;25.45;4.60;;;10.60;99.90;;;;;;6145910;23;20013;-83
2023/05/16 09:12:51;;;;;;;26.02;4.55;;;10.70;99.90;;;;;;6143856;23;20005;-83
2023/05/16 09:15:19;;;;;;;27.70;5.05;;;10.70;99.90;;;;;;6143583;23;20523;-80
2023/05/16 09:17:45;;;;;;;16.45;3.72;;;10.80;99.90;;;;;;6144098;23;20002;-81
2023/05/16 09:20:19;;;;;;;26.30;4.22;;;10.70;99.90;;;;;;6145305;23;20667;-83
2023/05/16 09:22:55;;;;;;;24.80;3.63;;;10.70;99.90;;;;;;6147841;23;20291;-82
2023/05/16 09:25:23;;;;;;;24.08;4.05;;;10.80;99.90;;;;;;6147851;23;20286;-83
2023/05/16 09:27:54;;;;;;;22.30;3.50;;;10.90;99.90;;;;;;6144728;23;20076;-80
2023/05/16 09:30:25;;;;;;;33.92;4.38;;;10.90;99.90;;;;;;6144916;23;20002;-85
2023/05/16 09:32:52;;;;;;;25.88;3.92;;;11.00;99.90;;;;;;6144251;23;20283;-80
2023/05/16 09:35:19;;;;;;;20.52;3.42;;;11.00;99.90;;;;;;6144388;23;20064;-84
2023/05/16 09:37:46;;;;;;;20.73;3.65;;;11.10;99.90;;;;;;6147064;23;20084;-80
2023/05/16 09:40:12;;;;;;;30.48;3.65;;;11.10;99.90;;;;;;6146166;23;20052;-84
2023/05/16 09:42:38;;;;;;;16.48;2.55;;;11.10;99.90;;;;;;6143784;23;20080;-81
2023/05/16 09:45:04;;;;;;;21.98;3.30;;;11.10;99.90;;;;;;6144214;23;20380;-84
2023/05/16 09:47:29;;;;;;;15.57;3.85;;;11.10;99.90;;;;;;6144053;23;20252;-86
2023/05/16 09:49:56;;;;;;;19.88;3.28;;;11.20;99.90;;;;;;6145765;23;20056;-84
2023/05/16 09:52:25;;;;;;;17.88;2.80;;;11.20;99.90;;;;;;6145117;23;20001;-83
2023/05/16 09:54:51;;;;;;;27.13;3.50;;;11.20;99.90;;;;;;6146556;23;20005;-84
2023/05/16 09:57:18;;;;;;;27.17;3.15;;;11.30;99.90;;;;;;6148126;23;20432;-80
2023/05/16 09:59:44;;;;;;;23.60;3.85;;;11.30;99.90;;;;;;6145489;23;20340;-82
2023/05/16 10:02:15;;;;;;;23.38;3.30;;;11.20;99.90;;;;;;6142794;23;20009;-91
2023/05/16 10:04:41;;;;;;;18.10;2.90;;;11.20;99.90;;;;;;6142371;23;20009;-83
2023/05/16 10:07:08;;;;;;;20.10;3.40;;;11.20;99.90;;;;;;6142822;23;20498;-81
2023/05/16 10:09:35;;;;;;;21.70;2.97;;;11.20;99.90;;;;;;6142747;23;20104;-81
2023/05/16 10:12:04;;;;;;;29.05;3.42;;;11.20;99.90;;;;;;6145325;23;20104;-84
2023/05/16 10:14:33;;;;;;;18.40;3.65;;;11.40;99.90;;;;;;6144719;23;20223;-87
2023/05/16 10:16:59;;;;;;;23.40;2.90;;;11.40;99.90;;;;;;6144709;23;20321;-81
2023/05/16 10:19:25;;;;;;;26.20;3.20;;;11.60;99.90;;;;;;6146383;23;20451;-88
2023/05/16 10:21:58;;;;;;;16.23;4.18;;;11.70;99.90;;;;;;6143681;23;20029;-86
2023/05/16 10:24:45;;;;;;;13.40;2.30;;;11.70;99.90;;;;;;6146575;23;20028;-84
2023/05/16 10:27:11;;;;;;;;;;;11.70;99.90;;;;;;6115773;23;20084;-83
2023/05/16 10:29:38;;;;;;;23.67;3.40;;;11.70;99.90;;;;;;6144911;23;19931;-79
2023/05/16 10:32:05;;;;;;;14.23;2.80;;;11.70;99.90;;;;;;6143838;23;20340;-85
2023/05/16 10:34:31;;;;;;;18.02;3.22;;;11.60;99.90;;;;;;6142649;23;20088;-79
2023/05/16 10:36:58;;;;;;;20.80;3.15;;;11.50;99.90;;;;;;6145957;23;20029;-80
2023/05/16 10:39:25;;;;;;;9.40;2.30;;;11.50;99.90;;;;;;6145110;23;20019;-81
2023/05/16 10:41:52;;;;;;;14.43;2.75;;;11.40;99.90;;;;;;6145084;23;20134;-80
2023/05/16 10:44:17;;;;;;;14.73;2.80;;;11.50;99.90;;;;;;6145015;23;20005;-80
2023/05/16 10:46:45;;;;;;;22.55;4.60;;;11.50;99.90;;;;;;6143387;23;20032;-81
2023/05/16 10:49:21;;;;;;;15.13;3.03;;;11.60;99.90;;;;;;6144385;23;20428;-83
2023/05/16 10:52:00;;;;;;;20.23;3.58;;;11.70;99.90;;;;;;6146152;23;20081;-80
2023/05/16 10:54:40;;;;;;;17.30;2.95;;;11.70;99.90;;;;;;6146444;23;20332;-84
2023/05/16 10:57:10;;;;;;;9.10;2.47;;;11.80;99.90;;;;;;6145231;23;20388;-81
2023/05/16 10:59:47;;;;;;;11.52;2.42;;;11.80;99.90;;;;;;6143462;23;20027;-80
2023/05/16 11:02:23;;;;;;;20.90;2.20;;;11.80;99.90;;;;;;6142842;23;20005;-79
2023/05/16 11:04:50;;;;;;;13.07;2.28;;;11.90;99.90;;;;;;6141875;23;20389;-80
2023/05/16 11:07:18;;;;;;;13.73;2.10;;;11.90;99.90;;;;;;6140285;23;20313;-83
2023/05/16 11:09:45;;;;;;;18.40;2.67;;;11.90;99.90;;;;;;6140909;23;20032;-80
2023/05/16 11:12:11;;;;;;;13.50;1.95;;;11.90;99.90;;;;;;6140871;23;20013;-81
2023/05/16 11:14:44;;;;;;;20.27;3.38;;;11.80;99.90;;;;;;6142550;23;20001;-81
2023/05/16 11:17:09;;;;;;;16.20;2.15;;;11.80;99.90;;;;;;6142590;23;20444;-82
2023/05/16 11:19:38;;;;;;;22.30;2.78;;;11.90;99.90;;;;;;6144653;23;20009;-80
2023/05/16 11:22:09;;;;;;;10.50;2.00;;;12.00;99.90;;;;;;6142573;23;20002;-81
2023/05/16 11:24:36;;;;;;;15.27;2.40;;;12.20;99.90;;;;;;6144169;23;20375;-79
2023/05/16 11:27:03;;;;;;;14.20;2.58;;;12.20;99.90;;;;;;6144571;23;20372;-80
2023/05/16 11:29:34;;;;;;;9.45;2.00;;;12.20;99.90;;;;;;6140344;23;20005;-81
2023/05/16 11:32:02;;;;;;;15.48;2.40;;;12.30;99.90;;;;;;6146135;23;20005;-80
2023/05/16 11:34:30;;;;;;;18.23;2.80;;;12.30;99.90;;;;;;6146001;23;20005;-79
2023/05/16 11:36:56;;;;;;;10.63;2.20;;;12.40;99.90;;;;;;6146269;23;20006;-79
2023/05/16 11:39:25;;;;;;;17.88;4.45;;;12.40;99.90;;;;;;6144309;23;20013;-81
2023/05/16 11:41:52;;;;;;;15.45;3.67;;;12.50;99.90;;;;;;6143265;23;20014;-81
2023/05/16 11:44:17;;;;;;;19.52;3.40;;;12.60;99.90;;;;;;6146289;23;20017;-82
2023/05/16 11:46:43;;;;;;;14.10;2.40;;;12.60;99.90;;;;;;6145104;23;20001;-85
2023/05/16 11:49:09;;;;;;;19.75;4.70;;;12.70;99.90;;;;;;6144166;23;19994;-84
2023/05/16 11:51:42;;;;;;;10.52;2.05;;;12.70;99.90;;;;;;6143813;23;20001;-81
2023/05/16 11:54:11;;;;;;;14.98;2.35;;;12.60;99.90;;;;;;6143389;23;20076;-80
2023/05/16 11:56:39;;;;;;;11.27;1.95;;;12.70;99.90;;;;;;6143952;23;19998;-78
2023/05/16 11:59:06;;;;;;;8.75;1.80;;;12.70;99.90;;;;;;6146136;23;20014;-79
2023/05/16 12:01:36;;;;;;;13.38;1.90;;;12.70;99.90;;;;;;6144313;23;20008;-81
2023/05/16 12:04:08;;;;;;;7.85;1.80;;;12.90;99.90;;;;;;6144653;23;20011;-80
2023/05/16 12:06:36;;;;;;;11.20;2.38;;;12.90;99.90;;;;;;6143895;23;20005;-87
2023/05/16 12:09:09;;;;;;;10.15;1.60;;;13.10;99.90;;;;;;6146041;23;20012;-79
2023/05/16 12:11:44;;;;;;;16.55;1.58;;;13.30;99.90;;;;;;6146319;23;20252;-80
2023/05/16 12:14:12;;;;;;;14.65;2.50;;;13.30;99.90;;;;;;6145263;23;20002;-84
2023/05/16 12:16:41;;;;;;;9.13;1.63;;;13.40;99.90;;;;;;6146847;23;20336;-79
2023/05/16 12:19:07;;;;;;;9.07;1.30;;;13.40;99.90;;;;;;6146300;23;20017;-81
2023/05/16 12:21:33;;;;;;;13.23;1.95;;;13.40;99.90;;;;;;6145935;23;19997;-81
2023/05/16 12:23:58;;;;;;;13.50;1.63;;;13.50;99.90;;;;;;6145835;23;20473;-83
2023/05/16 12:26:32;;;;;;;8.18;1.58;;;13.50;99.90;;;;;;6146037;23;20067;-82
2023/05/16 12:29:01;;;;;;;12.20;1.92;;;13.60;99.90;;;;;;6147866;23;20008;-83
2023/05/16 12:31:29;;;;;;;8.38;1.70;;;13.70;99.90;;;;;;6146999;23;20005;-83
2023/05/16 12:33:58;;;;;;;13.07;2.28;;;13.70;99.90;;;;;;6121856;23;20085;-88
2023/05/16 12:36:27;;;;;;;8.98;1.67;;;13.70;99.90;;;;;;6147827;23;20006;-83